Time;durP1;ratioP1;P1;durP2;ratioP2;P2;SDS_P1;SDS_P2;PMS_P1;PMS_P2;Temp;Humidity;BMP_temperature;BMP_pressure;BME280_temperature;BME280_humidity;BME280_pressure;Samples;Min_cycle;Max_cycle;Signal;HPM_P1;HPM_P2
2023/09/27 00:02:24;;;;;;;;;;;13.80;99.90;;;;;;4932115;29;19949;-86
2023/09/27 00:04:51;;;;;;;;;;;13.80;99.90;;;;;;4932362;28;19934;-87
2023/09/27 00:07:16;;;;;;;;;;;13.80;99.90;;;;;;4916359;29;19938;-86
2023/09/27 00:09:42;;;;;;;;;;;13.70;99.90;;;;;;4932252;29;20088;-86
2023/09/27 00:12:08;;;;;;;;;;;13.70;99.90;;;;;;4931174;29;19935;-87
2023/09/27 00:14:34;;;;;;;;;;;13.70;99.90;;;;;;4927176;29;19985;-86
2023/09/27 00:17:00;;;;;;;;;;;13.70;99.90;;;;;;4930982;29;19927;-86
2023/09/27 00:19:25;;;;;;;;;;;13.70;99.90;;;;;;4932050;29;19946;-86
2023/09/27 00:21:51;;;;;;;;;;;13.70;99.90;;;;;;4930976;29;20286;-86
2023/09/27 00:24:17;;;;;;;;;;;13.70;99.90;;;;;;4928744;29;19927;-86
2023/09/27 00:26:42;;;;;;;;;;;13.70;99.90;;;;;;4932497;29;19942;-86
2023/09/27 00:29:08;;;;;;;;;;;13.80;99.90;;;;;;4933503;29;19934;-86
2023/09/27 00:31:33;;;;;;;;;;;13.80;99.90;;;;;;4931216;28;19961;-85
2023/09/27 00:33:59;;;;;;;;;;;13.90;99.90;;;;;;4931879;29;19927;-86
2023/09/27 00:36:24;;;;;;;;;;;13.90;99.90;;;;;;4931296;29;19935;-86
2023/09/27 00:38:50;;;;;;;;;;;13.90;99.90;;;;;;4931940;28;20030;-86
2023/09/27 00:41:15;;;;;;;;;;;13.90;99.90;;;;;;4932588;29;19934;-85
2023/09/27 00:43:41;;;;;;;;;;;13.90;99.90;;;;;;4929297;29;20698;-86
2023/09/27 00:46:07;;;;;;;;;;;13.90;99.90;;;;;;4931081;29;20404;-87
2023/09/27 00:48:34;;;;;;;;;;;13.90;99.90;;;;;;4932547;28;19942;-86
2023/09/27 00:51:00;;;;;;;;;;;13.90;99.90;;;;;;4932670;29;19981;-86
2023/09/27 00:53:27;;;;;;;;;;;13.80;99.90;;;;;;4929554;29;19948;-86
2023/09/27 00:55:53;;;;;;;;;;;13.80;99.90;;;;;;4932231;29;19935;-86
2023/09/27 00:58:19;;;;;;;;;;;13.80;99.90;;;;;;4932415;29;20057;-86
2023/09/27 01:00:46;;;;;;;;;;;13.70;99.90;;;;;;4931760;28;19933;-86
2023/09/27 01:03:12;;;;;;;;;;;13.70;99.90;;;;;;4915059;29;19938;-86
2023/09/27 01:05:37;;;;;;;;;;;13.70;99.90;;;;;;4930952;28;19934;-86
2023/09/27 01:08:03;;;;;;;;;;;13.70;99.90;;;;;;4930888;28;19931;-86
2023/09/27 01:10:29;;;;;;;;;;;13.70;99.90;;;;;;4931140;29;20339;-86
2023/09/27 01:12:54;;;;;;;;;;;13.70;99.90;;;;;;4928069;28;20001;-86
2023/09/27 01:15:20;;;;;;;;;;;13.60;99.90;;;;;;4924936;29;19933;-86
2023/09/27 01:17:52;;;;;;;;;;;13.60;99.90;;;;;;4931200;29;19931;-86
2023/09/27 01:20:18;;;;;;;;;;;13.60;99.90;;;;;;4915409;29;19927;-86
2023/09/27 01:22:44;;;;;;;;;;;13.50;99.90;;;;;;4932218;29;19933;-86
2023/09/27 01:25:11;;;;;;;;;;;13.50;99.90;;;;;;4929787;29;19943;-86
2023/09/27 01:27:37;;;;;;;;;;;13.50;99.90;;;;;;4931806;29;20374;-86
2023/09/27 01:30:05;;;;;;;;;;;13.50;99.90;;;;;;4934647;29;19942;-86
2023/09/27 01:32:31;;;;;;;;;;;13.50;99.90;;;;;;4930795;29;19927;-86
2023/09/27 01:34:56;;;;;;;;;;;13.50;99.90;;;;;;4931949;29;20223;-86
2023/09/27 01:37:22;;;;;;;;;;;13.50;99.90;;;;;;4932186;29;19973;-86
2023/09/27 01:39:47;;;;;;;;;;;13.40;99.90;;;;;;4934276;28;19934;-86
2023/09/27 01:42:13;;;;;;;;;;;13.40;99.90;;;;;;4933461;29;20004;-86
2023/09/27 01:44:38;;;;;;;;;;;13.40;99.90;;;;;;4934004;29;20305;-86
2023/09/27 01:47:04;;;;;;;;;;;13.40;99.90;;;;;;4932450;29;19969;-86
2023/09/27 01:49:30;;;;;;;;;;;13.40;99.90;;;;;;4918603;28;19976;-86
2023/09/27 01:51:55;;;;;;;;;;;13.40;99.90;;;;;;4935037;29;20016;-86
2023/09/27 01:54:21;;;;;;;;;;;13.40;99.90;;;;;;4931513;29;21151;-86
2023/09/27 01:56:47;;;;;;;;;;;13.30;99.90;;;;;;4930367;29;19954;-87
2023/09/27 01:59:13;;;;;;;;;;;13.30;99.90;;;;;;4933029;29;20373;-87
2023/09/27 02:01:39;;;;;;;;;;;13.30;99.90;;;;;;4933842;29;20389;-87
2023/09/27 02:04:05;;;;;;;;;;;13.30;99.90;;;;;;4934090;28;19927;-86
2023/09/27 02:06:30;;;;;;;;;;;13.30;99.90;;;;;;4933109;28;19926;-87
2023/09/27 02:08:56;;;;;;;;;;;13.30;99.90;;;;;;4936812;28;20718;-86
2023/09/27 02:11:25;;;;;;;;;;;13.20;99.90;;;;;;4933869;29;19974;-86
2023/09/27 02:13:50;;;;;;;;;;;13.20;99.90;;;;;;4934643;29;19927;-86
2023/09/27 02:16:16;;;;;;;;;;;13.20;99.90;;;;;;4934832;29;19931;-86
2023/09/27 02:18:42;;;;;;;;;;;13.20;99.90;;;;;;4916084;29;19927;-86
2023/09/27 02:21:08;;;;;;;;;;;13.20;99.90;;;;;;4933689;29;19927;-86
2023/09/27 02:23:33;;;;;;;;;;;13.10;99.90;;;;;;4933020;29;20382;-86
2023/09/27 02:25:59;;;;;;;;;;;13.10;99.90;;;;;;4934597;29;19927;-86
2023/09/27 02:28:25;;;;;;;;;;;13.10;99.90;;;;;;4929820;29;19926;-86
2023/09/27 02:30:50;;;;;;;;;;;13.10;99.90;;;;;;4933599;29;19938;-87
2023/09/27 02:33:17;;;;;;;;;;;13.10;99.90;;;;;;4937140;29;19927;-87
2023/09/27 02:35:43;;;;;;;;;;;13.10;99.90;;;;;;4935426;29;19973;-87
2023/09/27 02:38:09;;;;;;;;;;;13.00;99.90;;;;;;4916217;29;19957;-86
2023/09/27 02:40:34;;;;;;;;;;;13.00;99.90;;;;;;4933530;29;19935;-87
2023/09/27 02:43:00;;;;;;;;;;;13.00;99.90;;;;;;4933325;29;19934;-87
2023/09/27 02:45:25;;;;;;;;;;;13.00;99.90;;;;;;4934431;29;19934;-86
2023/09/27 02:47:51;;;;;;;;;;;13.00;99.90;;;;;;4932795;29;20052;-87
2023/09/27 02:50:16;;;;;;;;;;;12.90;99.90;;;;;;4933278;28;19931;-87
2023/09/27 02:52:43;;;;;;;;;;;12.90;99.90;;;;;;4934172;29;20331;-87
2023/09/27 02:55:09;;;;;;;;;;;12.80;99.90;;;;;;4932556;29;19934;-87
2023/09/27 02:57:35;;;;;;;;;;;12.80;99.90;;;;;;4933803;29;19926;-86
2023/09/27 03:00:01;;;;;;;;;;;12.80;99.90;;;;;;4932165;29;19978;-86
2023/09/27 03:02:27;;;;;;;;;;;12.80;99.90;;;;;;4933614;29;20020;-87
2023/09/27 03:04:52;;;;;;;;;;;12.80;99.90;;;;;;4934221;29;19931;-86
2023/09/27 03:07:18;;;;;;;;;;;12.80;99.90;;;;;;4932934;29;20436;-87
2023/09/27 03:09:44;;;;;;;;;;;12.80;99.90;;;;;;4932988;29;19927;-86
2023/09/27 03:12:10;;;;;;;;;;;12.70;99.90;;;;;;4931622;28;19974;-87
2023/09/27 03:14:35;;;;;;;;;;;12.70;99.90;;;;;;4933261;29;19931;-87
2023/09/27 03:17:01;;;;;;;;;;;12.70;99.90;;;;;;4932903;29;19977;-87
2023/09/27 03:19:27;;;;;;;;;;;12.70;99.90;;;;;;4932742;29;20409;-87
2023/09/27 03:21:52;;;;;;;;;;;12.70;99.90;;;;;;4931059;29;19948;-86
2023/09/27 03:24:18;;;;;;;;;;;12.70;99.90;;;;;;4931900;29;20005;-86
2023/09/27 03:26:43;;;;;;;;;;;12.70;99.90;;;;;;4933714;29;20005;-87
2023/09/27 03:29:09;;;;;;;;;;;12.60;99.90;;;;;;4936493;28;19927;-86
2023/09/27 03:31:34;;;;;;;;;;;12.60;99.90;;;;;;4932608;28;19927;-86
2023/09/27 03:34:00;;;;;;;;;;;12.60;99.90;;;;;;4933566;28;19927;-87
2023/09/27 03:36:26;;;;;;;;;;;12.60;99.90;;;;;;4932482;28;19934;-87
2023/09/27 03:38:52;;;;;;;;;;;12.60;99.90;;;;;;4932718;29;19997;-86
2023/09/27 03:41:17;;;;;;;;;;;12.60;99.90;;;;;;4932558;29;19953;-87
2023/09/27 03:43:43;;;;;;;;;;;12.50;99.90;;;;;;4931580;28;20338;-87
2023/09/27 03:46:08;;;;;;;;;;;12.50;99.90;;;;;;4933344;28;19953;-87
2023/09/27 03:48:34;;;;;;;;;;;12.50;99.90;;;;;;4932516;29;19949;-87
2023/09/27 03:50:59;;;;;;;;;;;12.50;99.90;;;;;;4933274;29;19974;-87
2023/09/27 03:53:25;;;;;;;;;;;12.50;99.90;;;;;;4929665;29;19945;-87
2023/09/27 03:55:51;;;;;;;;;;;12.50;99.90;;;;;;4932520;28;19930;-86
2023/09/27 03:58:16;;;;;;;;;;;12.40;99.90;;;;;;4931295;28;19935;-87
2023/09/27 04:00:42;;;;;;;;;;;12.40;99.90;;;;;;4932336;29;19930;-87
2023/09/27 04:03:08;;;;;;;;;;;12.40;99.90;;;;;;4936251;28;19934;-87
2023/09/27 04:05:34;;;;;;;;;;;12.30;99.90;;;;;;4932085;29;19926;-86
2023/09/27 04:08:00;;;;;;;;;;;12.30;99.90;;;;;;4932411;28;19927;-86
2023/09/27 04:10:27;;;;;;;;;;;12.30;99.90;;;;;;4916253;29;19931;-87
2023/09/27 04:12:52;;;;;;;;;;;12.30;99.90;;;;;;4932099;29;20016;-86
2023/09/27 04:15:18;;;;;;;;;;;12.30;99.90;;;;;;4930945;28;19978;-86
2023/09/27 04:17:43;;;;;;;;;;;12.30;99.90;;;;;;4933125;29;19927;-86
2023/09/27 04:20:18;;;;;;;;;;;12.30;99.90;;;;;;4916427;29;19931;-86
2023/09/27 04:22:44;;;;;;;;;;;12.30;99.90;;;;;;4932168;29;20127;-87
2023/09/27 04:25:12;;;;;;;;;;;12.30;99.90;;;;;;4930023;29;19927;-86
2023/09/27 04:27:39;;;;;;;;;;;12.30;99.90;;;;;;4932988;28;19927;-86
2023/09/27 04:30:07;;;;;;;;;;;12.30;99.90;;;;;;4935419;28;19989;-87
2023/09/27 04:32:33;;;;;;;;;;;12.30;99.90;;;;;;4931696;28;19931;-87
2023/09/27 04:34:58;;;;;;;;;;;12.30;99.90;;;;;;4930144;29;19937;-86
2023/09/27 04:37:24;;;;;;;;;;;12.30;99.90;;;;;;4929745;28;19935;-86
2023/09/27 04:39:49;;;;;;;;;;;12.30;99.90;;;;;;4933152;29;19926;-86
2023/09/27 04:42:15;;;;;;;;;;;12.30;99.90;;;;;;4932640;29;19927;-86
2023/09/27 04:44:40;;;;;;;;;;;12.30;99.90;;;;;;4930010;28;19933;-86
2023/09/27 04:47:06;;;;;;;;;;;12.30;99.90;;;;;;4932259;29;20326;-86
2023/09/27 04:49:32;;;;;;;;;;;12.30;99.90;;;;;;4931826;29;19927;-86
2023/09/27 04:51:57;;;;;;;;;;;12.30;99.90;;;;;;4931997;29;20030;-86
2023/09/27 04:54:23;;;;;;;;;;;12.30;99.90;;;;;;4931018;29;19952;-86
2023/09/27 04:56:49;;;;;;;;;;;12.30;99.90;;;;;;4915079;29;19934;-86
2023/09/27 04:59:14;;;;;;;;;;;12.30;99.90;;;;;;4931693;29;20006;-86
2023/09/27 05:01:40;;;;;;;;;;;12.30;99.90;;;;;;4931854;28;20034;-87
2023/09/27 05:04:06;;;;;;;;;;;12.30;99.90;;;;;;4932438;29;20389;-86
2023/09/27 05:06:32;;;;;;;;;;;12.30;99.90;;;;;;4931452;29;19934;-87
2023/09/27 05:08:58;;;;;;;;;;;12.30;99.90;;;;;;4931402;29;19988;-87
2023/09/27 05:11:23;;;;;;;;;;;12.30;99.90;;;;;;4935261;28;19930;-87
2023/09/27 05:13:49;;;;;;;;;;;12.30;99.90;;;;;;4936916;28;19934;-87
2023/09/27 05:16:15;;;;;;;;;;;12.30;99.90;;;;;;4937753;28;20369;-87
2023/09/27 05:18:41;;;;;;;;;;;12.30;99.90;;;;;;4933997;29;20442;-87
2023/09/27 05:21:07;;;;;;;;;;;12.30;99.90;;;;;;4933875;29;19927;-87
2023/09/27 05:23:33;;;;;;;;;;;12.30;99.90;;;;;;4918398;29;19927;-86
2023/09/27 05:25:58;;;;;;;;;;;12.30;99.90;;;;;;4933551;29;19927;-87
2023/09/27 05:28:24;;;;;;;;;;;12.30;99.90;;;;;;4935392;29;19926;-88
2023/09/27 05:30:49;;;;;;;;;;;12.30;99.90;;;;;;4921187;29;19926;-86
2023/09/27 05:33:17;;;;;;;;;;;12.40;99.90;;;;;;4935393;29;20463;-87
2023/09/27 05:35:43;;;;;;;;;;;12.40;99.90;;;;;;4933869;29;19938;-86
2023/09/27 05:38:08;;;;;;;;;;;12.40;99.90;;;;;;4933474;29;19927;-87
2023/09/27 05:40:34;;;;;;;;;;;12.50;99.90;;;;;;4933733;28;20408;-86
2023/09/27 05:43:00;;;;;;;;;;;12.40;99.90;;;;;;4935132;28;19926;-86
2023/09/27 05:45:26;;;;;;;;;;;12.50;99.90;;;;;;4930337;28;19926;-87
2023/09/27 05:47:52;;;;;;;;;;;12.50;99.90;;;;;;4926875;29;20266;-87
2023/09/27 05:50:17;;;;;;;;;;;12.50;99.90;;;;;;4917907;29;20326;-87
2023/09/27 05:52:44;;;;;;;;;;;12.50;99.90;;;;;;4935006;29;19992;-87
2023/09/27 05:55:11;;;;;;;;;;;12.50;99.90;;;;;;4932668;28;19931;-87
2023/09/27 05:57:36;;;;;;;;;;;12.60;99.90;;;;;;4934558;29;20009;-86
2023/09/27 06:00:13;;;;;;;;;;;12.60;99.90;;;;;;4933137;29;20410;-87
2023/09/27 06:02:38;;;;;;;;;;;12.70;99.90;;;;;;4929721;29;20006;-87
2023/09/27 06:05:06;;;;;;;;;;;12.70;99.90;;;;;;4933935;28;20006;-87
2023/09/27 06:07:33;;;;;;;;;;;12.80;99.90;;;;;;4934331;28;19931;-88
2023/09/27 06:09:59;;;;;;;;;;;12.80;99.90;;;;;;4916250;29;19973;-85
2023/09/27 06:12:25;;;;;;;;;;;12.80;99.90;;;;;;4933684;29;19970;-85
2023/09/27 06:14:50;;;;;;;;;;;12.80;99.90;;;;;;4933859;29;19927;-86
2023/09/27 06:17:17;;;;;;;;;;;12.90;99.90;;;;;;4916886;28;19926;-86
2023/09/27 06:19:43;;;;;;;;;;;12.90;99.90;;;;;;4933785;29;20294;-86
2023/09/27 06:22:08;;;;;;;;;;;13.00;99.90;;;;;;4933562;28;19930;-87
2023/09/27 06:24:34;;;;;;;;;;;13.00;99.90;;;;;;4908382;29;19927;-87
2023/09/27 06:26:59;;;;;;;;;;;13.10;99.90;;;;;;4919728;29;19969;-87
2023/09/27 06:29:25;;;;;;;;;;;13.10;99.90;;;;;;4923003;28;19927;-86
2023/09/27 06:31:51;;;;;;;;;;;13.10;99.90;;;;;;4921425;29;19962;-91
2023/09/27 06:34:17;;;;;;;;;;;13.20;99.90;;;;;;4928084;28;19926;-87
2023/09/27 06:36:43;;;;;;;;;;;13.20;99.90;;;;;;4919292;29;20016;-86
2023/09/27 06:39:12;;;;;;;;;;;13.20;99.90;;;;;;4923483;28;19997;-87
2023/09/27 06:41:39;;;;;;;;;;;13.30;99.90;;;;;;4919392;29;19982;-85
2023/09/27 06:44:06;;;;;;;;;;;13.40;99.90;;;;;;4917230;28;19927;-87
2023/09/27 06:46:32;;;;;;;;;;;13.40;99.90;;;;;;4917232;29;20672;-86
2023/09/27 06:48:59;;;;;;;;;;;13.50;99.90;;;;;;4918704;29;19927;-87
2023/09/27 06:51:24;;;;;;;;;;;13.60;99.90;;;;;;4921299;28;20394;-86
2023/09/27 06:53:50;;;;;;;;;;;13.60;99.90;;;;;;4922254;28;19931;-87
2023/09/27 06:56:15;;;;;;;;;;;13.70;99.90;;;;;;4934193;28;20307;-86
2023/09/27 06:58:41;;;;;;;;;;;13.80;99.90;;;;;;4931036;29;19934;-87
2023/09/27 07:01:07;;;;;;;;;;;14.00;99.90;;;;;;4939374;28;20412;-87
2023/09/27 07:03:36;;;;;;;;;;;14.10;99.90;;;;;;4929545;29;20776;-87
2023/09/27 07:06:02;;;;;;;;;;;14.20;99.90;;;;;;4935628;28;19946;-87
2023/09/27 07:08:28;;;;;;;;;;;14.40;99.90;;;;;;4928483;28;20397;-86
2023/09/27 07:10:54;;;;;;;;;;;14.50;99.90;;;;;;4933457;29;19996;-87
2023/09/27 07:13:19;;;;;;;;;;;14.60;99.90;;;;;;4938246;28;19927;-87
2023/09/27 07:15:48;;;;;;;;;;;14.70;99.90;;;;;;4947238;28;19927;-87
2023/09/27 07:18:13;;;;;;;;;;;14.80;99.90;;;;;;4933161;28;20389;-88
2023/09/27 07:20:42;;;;;;;;;;;14.90;99.90;;;;;;4929052;29;19933;-87
2023/09/27 07:23:08;;;;;;;;;;;15.00;99.90;;;;;;4934705;28;19938;-87
2023/09/27 07:25:37;;;;;;;;;;;15.10;99.90;;;;;;4930520;28;20305;-87
2023/09/27 07:28:04;;;;;;;;;;;15.20;99.90;;;;;;4932986;29;20626;-87
2023/09/27 07:30:30;;;;;;;;;;;15.30;99.90;;;;;;4932925;28;19933;-87
2023/09/27 07:32:56;;;;;;;;;;;15.40;99.90;;;;;;4933251;29;19927;-88
2023/09/27 07:35:23;;;;;;;;;;;15.30;99.90;;;;;;4933723;29;19931;-86
2023/09/27 07:37:49;;;;;;;;;;;15.30;99.90;;;;;;4935287;28;19962;-86
2023/09/27 07:40:15;;;;;;;;;;;15.30;99.90;;;;;;4932694;29;19973;-90
2023/09/27 07:42:44;;;;;;;;;;;15.40;99.90;;;;;;4932707;29;20342;-86
2023/09/27 07:45:23;;;;;;;;;;;15.40;99.90;;;;;;4932989;29;19927;-87
2023/09/27 07:47:50;;;;;;;;;;;15.40;99.90;;;;;;4929813;28;19993;-89
2023/09/27 07:50:16;;;;;;;;;;;15.40;99.90;;;;;;4926614;28;20001;-88
2023/09/27 07:52:42;;;;;;;;;;;15.40;99.90;;;;;;4927569;29;20392;-90
2023/09/27 07:55:09;;;;;;;;;;;15.50;99.90;;;;;;4933122;29;19934;-86
2023/09/27 07:57:36;;;;;;;;;;;15.50;99.90;;;;;;4915324;29;20281;-87
2023/09/27 08:00:08;;;;;;;;;;;15.50;99.90;;;;;;4931947;28;20017;-86
2023/09/27 08:02:34;;;;;;;;;;;15.50;99.90;;;;;;4932773;29;20271;-85
2023/09/27 08:05:02;;;;;;;;;;;15.50;99.90;;;;;;4933157;28;19981;-85
2023/09/27 08:07:28;;;;;;;;;;;15.50;99.90;;;;;;4934485;29;20325;-85
2023/09/27 08:09:53;;;;;;;;;;;15.60;99.90;;;;;;4932105;29;19931;-85
2023/09/27 08:12:20;;;;;;;;;;;15.60;99.90;;;;;;4932974;29;19974;-85
2023/09/27 08:14:46;;;;;;;;;;;15.70;99.90;;;;;;4932936;29;20504;-85
2023/09/27 08:17:11;;;;;;;;;;;15.80;99.90;;;;;;4932877;29;20049;-85
2023/09/27 08:19:38;;;;;;;;;;;15.90;99.90;;;;;;4928712;29;20370;-84
2023/09/27 08:22:04;;;;;;;;;;;16.00;99.90;;;;;;4928781;29;20381;-84
2023/09/27 08:24:29;;;;;;;;;;;16.10;99.90;;;;;;4932434;29;19957;-84
2023/09/27 08:26:55;;;;;;;;;;;16.20;99.90;;;;;;4931889;29;19931;-84
2023/09/27 08:29:21;;;;;;;;;;;16.30;99.90;;;;;;4931810;29;20042;-84
2023/09/27 08:31:47;;;;;;;;;;;16.50;99.90;;;;;;4915276;29;19930;-84
2023/09/27 08:34:13;;;;;;;;;;;16.60;99.90;;;;;;4931645;29;19942;-84
2023/09/27 08:36:39;;;;;;;;;;;16.70;99.90;;;;;;4931157;29;19934;-85
2023/09/27 08:39:04;;;;;;;;;;;16.80;99.90;;;;;;4932690;29;20309;-85
2023/09/27 08:41:30;;;;;;;;;;;16.90;99.90;;;;;;4931832;29;19931;-85
2023/09/27 08:43:57;;;;;;;;;;;17.00;99.90;;;;;;4932113;29;19934;-84
2023/09/27 08:46:23;;;;;;;;;;;17.20;99.90;;;;;;4932365;29;19927;-84
2023/09/27 08:48:51;;;;;;;;;;;17.40;99.90;;;;;;4931858;29;20282;-84
2023/09/27 08:51:16;;;;;;;;;;;17.50;99.90;;;;;;4929391;29;19937;-84
2023/09/27 08:53:42;;;;;;;;;;;17.80;99.90;;;;;;4931889;29;19927;-85
2023/09/27 08:56:09;;;;;;;;;;;17.90;99.90;;;;;;4932808;28;19927;-84
2023/09/27 08:58:35;;;;;;;;;;;17.90;99.90;;;;;;4932795;28;20010;-85
2023/09/27 09:01:01;;;;;;;;;;;18.00;99.90;;;;;;4931506;29;20021;-85
2023/09/27 09:03:27;;;;;;;;;;;18.00;99.90;;;;;;4932583;29;19973;-84
2023/09/27 09:05:54;;;;;;;;;;;18.20;99.90;;;;;;4915287;28;19977;-84
2023/09/27 09:08:20;;;;;;;;;;;18.30;99.90;;;;;;4932204;29;19933;-85
2023/09/27 09:10:45;;;;;;;;;;;18.40;99.90;;;;;;4931421;29;20005;-84
2023/09/27 09:13:11;;;;;;;;;;;18.50;99.90;;;;;;4913666;28;19974;-85
2023/09/27 09:15:47;;;;;;;;;;;18.60;99.90;;;;;;4931716;29;19985;-85
2023/09/27 09:18:14;;;;;;;;;;;18.80;99.90;;;;;;4927363;29;20337;-84
2023/09/27 09:20:54;;;;;;;;;;;19.00;99.90;;;;;;4932226;29;19927;-85
2023/09/27 09:23:26;;;;;;;;;;;19.30;99.90;;;;;;4928329;29;19933;-84
2023/09/27 09:25:53;;;;;;;;;;;19.60;99.90;;;;;;4931622;28;19927;-85
2023/09/27 09:28:20;;;;;;;;;;;19.80;99.90;;;;;;4931271;29;20374;-85
2023/09/27 09:30:45;;;;;;;;;;;20.00;99.90;;;;;;4930485;28;20686;-84
2023/09/27 09:33:15;;;;;;;;;;;20.20;99.90;;;;;;4929911;28;19933;-86
2023/09/27 09:35:41;;;;;;;;;;;20.30;99.90;;;;;;4930325;28;20417;-86
2023/09/27 09:38:06;;;;;;;;;;;20.50;99.90;;;;;;4930717;29;19977;-85
2023/09/27 09:40:34;;;;;;;;;;;20.50;99.90;;;;;;4931592;29;19926;-86
2023/09/27 09:43:00;;;;;;;;;;;20.60;99.90;;;;;;4930307;29;19930;-85
2023/09/27 09:45:26;;;;;;;;;;;20.50;99.90;;;;;;4931103;29;19931;-85
2023/09/27 09:47:52;;;;;;;;;;;20.50;99.90;;;;;;4931770;29;19927;-84
2023/09/27 09:50:18;;;;;;;;;;;20.50;99.90;;;;;;4930611;28;19931;-84
2023/09/27 09:52:55;;;;;;;;;;;20.60;99.90;;;;;;4929672;29;19931;-84
2023/09/27 09:55:22;;;;;;;;;;;21.00;99.90;;;;;;4921250;29;20420;-85
2023/09/27 09:57:52;;;;;;;;;;;21.70;99.90;;;;;;4934195;29;19972;-85
2023/09/27 10:00:18;;;;;;;;;;;22.30;99.90;;;;;;4935099;29;19985;-84
2023/09/27 10:02:53;;;;;;;;;;;22.90;99.90;;;;;;4934435;29;19935;-85
2023/09/27 10:05:22;;;;;;;;;;;23.20;99.90;;;;;;4934154;29;19996;-84
2023/09/27 10:07:48;;;;;;;;;;;23.20;99.90;;;;;;4933390;29;20019;-84
2023/09/27 10:10:17;;;;;;;;;;;23.00;99.90;;;;;;4933920;29;20021;-85
2023/09/27 10:12:44;;;;;;;;;;;22.70;99.90;;;;;;4932331;29;19927;-84
2023/09/27 10:15:10;;;;;;;;;;;22.40;99.90;;;;;;4929774;28;20460;-86
2023/09/27 10:17:36;;;;;;;;;;;22.00;99.90;;;;;;4932291;29;19931;-84
2023/09/27 10:20:12;;;;;;;;;;;21.70;99.90;;;;;;4934952;29;19931;-86
2023/09/27 10:22:39;;;;;;;;;;;21.60;99.90;;;;;;4932700;28;19931;-86
2023/09/27 10:25:04;;;;;;;;;;;21.50;99.90;;;;;;4932150;29;19973;-86
2023/09/27 10:27:49;;;;;;;;;;;21.40;99.90;;;;;;4933724;29;20416;-86
2023/09/27 10:30:14;;;;;;;;;;;21.40;99.90;;;;;;4934495;29;19935;-87
2023/09/27 10:32:40;;;;;;;;;;;21.40;99.90;;;;;;4934011;28;19927;-85
2023/09/27 10:35:17;;;;;;;;;;;21.40;99.90;;;;;;4931439;29;20214;-85
2023/09/27 10:37:59;;;;;;;;;;;21.40;99.90;;;;;;4934130;28;19934;-84
2023/09/27 10:40:25;;;;;;;;;;;21.50;99.90;;;;;;4932694;29;20288;-84
2023/09/27 10:42:51;;;;;;;;;;;21.60;99.90;;;;;;4933534;29;19931;-85
2023/09/27 10:45:17;;;;;;;;;;;21.60;99.90;;;;;;4932078;29;19927;-86
2023/09/27 10:47:43;;;;;;;;;;;21.60;99.90;;;;;;4934365;28;20041;-85
2023/09/27 10:50:10;;;;;;;;;;;21.80;99.90;;;;;;4933612;29;19981;-85
2023/09/27 10:52:36;;;;;;;;;;;21.90;99.90;;;;;;4934275;29;20372;-84
2023/09/27 10:55:09;;;;;;;;;;;22.00;99.90;;;;;;4932023;29;19935;-84
2023/09/27 10:57:34;;;;;;;;;;;22.20;99.90;;;;;;4933067;28;19949;-83
2023/09/27 11:00:00;;;;;;;;;;;22.40;99.90;;;;;;4933501;29;19930;-84
2023/09/27 11:02:29;;;;;;;;;;;22.50;99.90;;;;;;4932967;29;19933;-85
2023/09/27 11:04:55;;;;;;;;;;;22.60;99.90;;;;;;4931992;29;20013;-84
2023/09/27 11:07:20;;;;;;;;;;;22.60;99.90;;;;;;4933388;28;20326;-84
2023/09/27 11:09:48;;;;;;;;;;;22.60;99.90;;;;;;4932796;29;19934;-83
2023/09/27 11:12:20;;;;;;;;;;;22.60;99.90;;;;;;4934493;29;19931;-83
2023/09/27 11:14:45;;;;;;;;;;;22.50;99.90;;;;;;4934133;29;20302;-84
2023/09/27 11:17:25;;;;;;;;;;;22.40;99.90;;;;;;4933662;28;19935;-83
2023/09/27 11:19:51;;;;;;;;;;;22.30;99.90;;;;;;4932688;28;20039;-84
2023/09/27 11:22:23;;;;;;;;;;;22.30;99.90;;;;;;4928138;29;20365;-84
2023/09/27 11:24:49;;;;;;;;;;;22.40;99.90;;;;;;4931569;28;19926;-85
2023/09/27 11:27:18;;;;;;;;;;;22.40;99.90;;;;;;4932592;29;19977;-85
2023/09/27 11:29:49;;;;;;;;;;;22.30;99.90;;;;;;4950424;28;20371;-85
2023/09/27 11:32:15;;;;;;;;;;;22.40;99.90;;;;;;4928584;28;20282;-86
2023/09/27 11:34:40;;;;;;;;;;;22.40;99.90;;;;;;4933894;29;19927;-84
2023/09/27 11:37:16;;;;;;;;;;;22.40;99.90;;;;;;4931298;29;20336;-85
2023/09/27 11:39:50;;;;;;;;;;;22.40;99.90;;;;;;4933713;29;20054;-85
2023/09/27 11:42:25;;;;;;;;;;;22.40;99.90;;;;;;4945019;29;19937;-86
2023/09/27 11:45:04;;;;;;;;;;;22.50;99.90;;;;;;4921002;29;19927;-87
2023/09/27 11:47:31;;;;;;;;;;;22.50;99.90;;;;;;4931483;29;20325;-86
2023/09/27 11:49:56;;;;;;;;;;;22.40;99.90;;;;;;4916584;29;20014;-85
2023/09/27 11:52:22;;;;;;;;;;;22.20;99.90;;;;;;4933423;29;20010;-86
2023/09/27 11:54:47;;;;;;;;;;;22.10;99.90;;;;;;4931684;29;19927;-86
2023/09/27 11:57:13;;;;;;;;;;;22.00;99.90;;;;;;4933528;29;19926;-86
2023/09/27 11:59:39;;;;;;;;;;;21.90;99.90;;;;;;4930607;29;20344;-84
2023/09/27 12:02:05;;;;;;;;;;;21.80;99.90;;;;;;4932551;29;19934;-86
2023/09/27 12:04:30;;;;;;;;;;;21.80;99.90;;;;;;4931176;28;20397;-86
2023/09/27 12:06:56;;;;;;;;;;;21.70;99.90;;;;;;4932530;28;19927;-85
2023/09/27 12:09:21;;;;;;;;;;;21.70;99.90;;;;;;4931282;29;19937;-85
2023/09/27 12:11:47;;;;;;;;;;;21.70;99.90;;;;;;4933224;29;19927;-85
2023/09/27 12:14:13;;;;;;;;;;;21.70;99.90;;;;;;4932730;29;19926;-85
2023/09/27 12:16:38;;;;;;;;;;;21.80;99.90;;;;;;4933278;29;19934;-84
2023/09/27 12:19:07;;;;;;;;;;;22.00;99.90;;;;;;4930902;29;19927;-85
2023/09/27 12:21:35;;;;;;;;;;;22.10;99.90;;;;;;4939774;28;19978;-84
2023/09/27 12:24:02;;;;;;;;;;;22.30;99.90;;;;;;4932427;29;19934;-85
2023/09/27 12:26:29;;;;;;;;;;;22.50;99.90;;;;;;4933048;29;19926;-84
2023/09/27 12:28:55;;;;;;;;;;;22.50;99.90;;;;;;4932844;29;19931;-85
2023/09/27 12:31:21;;;;;;;;;;;22.50;99.90;;;;;;4931560;29;19976;-85
2023/09/27 12:33:47;;;;;;;;;;;22.50;99.90;;;;;;4932236;28;19931;-85
2023/09/27 12:36:13;;;;;;;;;;;22.40;99.90;;;;;;4932698;29;20057;-84
2023/09/27 12:38:40;;;;;;;;;;;22.50;99.90;;;;;;4931643;29;19931;-85
2023/09/27 12:41:08;;;;;;;;;;;22.60;99.90;;;;;;4930758;29;19937;-86
2023/09/27 12:43:34;;;;;;;;;;;22.60;99.90;;;;;;4928188;29;19931;-83
2023/09/27 12:46:03;;;;;;;;;;;22.70;99.90;;;;;;4927843;28;20362;-84
2023/09/27 12:48:28;;;;;;;;;;;22.90;99.90;;;;;;4926961;29;19934;-85
2023/09/27 12:50:55;;;;;;;;;;;23.00;99.90;;;;;;4924812;28;19927;-86
2023/09/27 12:53:21;;;;;;;;;;;23.10;99.90;;;;;;4931003;29;19931;-85
2023/09/27 12:55:46;;;;;;;;;;;23.00;99.90;;;;;;4931226;29;19993;-85
2023/09/27 12:58:13;;;;;;;;;;;23.00;99.90;;;;;;4933191;29;19931;-85
2023/09/27 13:00:39;;;;;;;;;;;23.00;99.90;;;;;;4936756;29;19930;-87
2023/09/27 13:03:05;;;;;;;;;;;23.00;99.90;;;;;;4927074;29;19927;-84
2023/09/27 13:05:30;;;;;;;;;;;23.00;99.90;;;;;;4928841;29;19942;-85
2023/09/27 13:07:57;;;;;;;;;;;23.10;99.90;;;;;;4930649;29;19927;-84
2023/09/27 13:10:23;;;;;;;;;;;23.00;99.90;;;;;;4932271;29;19927;-85
2023/09/27 13:12:49;;;;;;;;;;;23.00;99.90;;;;;;4928685;29;19927;-85
2023/09/27 13:15:15;;;;;;;;;;;23.10;99.90;;;;;;4929550;29;20068;-84
2023/09/27 13:17:40;;;;;;;;;;;23.20;99.90;;;;;;4941885;28;20053;-85
2023/09/27 13:20:07;;;;;;;;;;;23.30;99.90;;;;;;4967516;28;20073;-84
2023/09/27 13:22:33;;;;;;;;;;;23.40;99.90;;;;;;4930369;29;19973;-85
2023/09/27 13:24:58;;;;;;;;;;;23.60;99.90;;;;;;4931725;28;20021;-85
2023/09/27 13:27:24;;;;;;;;;;;23.70;99.90;;;;;;4930191;29;19935;-85
2023/09/27 13:29:50;;;;;;;;;;;23.70;99.90;;;;;;4931328;29;20327;-86
2023/09/27 13:32:15;;;;;;;;;;;23.70;99.90;;;;;;4933380;29;19927;-85
2023/09/27 13:34:41;;;;;;;;;;;23.70;99.90;;;;;;4933566;28;19931;-85
2023/09/27 13:37:06;;;;;;;;;;;23.60;99.90;;;;;;4934119;28;20037;-87
2023/09/27 13:39:32;;;;;;;;;;;23.40;99.90;;;;;;4929241;29;20279;-85
2023/09/27 13:41:58;;;;;;;;;;;23.40;99.90;;;;;;4929852;29;19970;-84
2023/09/27 13:44:23;;;;;;;;;;;23.30;99.90;;;;;;4936722;28;19989;-85
2023/09/27 13:46:49;;;;;;;;;;;23.20;99.90;;;;;;4935503;29;20405;-85
2023/09/27 13:49:15;;;;;;;;;;;23.20;99.90;;;;;;4933170;29;20051;-85
2023/09/27 13:51:40;;;;;;;;;;;23.10;99.90;;;;;;4933012;28;20390;-87
2023/09/27 13:54:06;;;;;;;;;;;23.10;99.90;;;;;;4930976;28;19934;-86
2023/09/27 13:56:32;;;;;;;;;;;23.10;99.90;;;;;;4934179;29;19934;-85
2023/09/27 13:58:59;;;;;;;;;;;23.20;99.90;;;;;;4934171;28;20298;-86
2023/09/27 14:01:25;;;;;;;;;;;23.20;99.90;;;;;;4934235;28;19939;-85
2023/09/27 14:03:51;;;;;;;;;;;23.20;99.90;;;;;;4934144;29;19938;-85
2023/09/27 14:06:19;;;;;;;;;;;23.10;99.90;;;;;;5001312;28;19927;-85
2023/09/27 14:08:47;;;;;;;;;;;23.20;99.90;;;;;;4934117;29;19931;-85
2023/09/27 14:11:13;;;;;;;;;;;23.20;99.90;;;;;;4934001;28;20341;-86
2023/09/27 14:13:39;;;;;;;;;;;23.20;99.90;;;;;;4932948;28;20018;-87